Terminal Aerodrome Forecast
Issued by NWS

Home | Current Version | Previous Version | Text Only | Print | Product List | Glossary On
Versions: 1 2 3 4 5 6 7 8 9 10 11 12
000
FTPQ31 PGUM 171729
TAFGUM
TAF

TAF
PGSN 171729Z 1718/1818 12010KT P6SM VCSH SCT018 SCT040 BKN110
      TEMPO 1718/1721 2SM +TSRA OVC020CB=

USA.gov is the U.S. government's official web portal to all federal, state and local government web resources and services.